sensor_id;sensor_type;location;lat;lon;timestamp;P1;durP1;ratioP1;P2;durP2;ratioP2
10493;SDS011;5294;49.410;8.698;2023-03-05T00:01:44;29.03;;;20.40;;
10493;SDS011;5294;49.410;8.698;2023-03-05T00:04:11;28.93;;;20.67;;
10493;SDS011;5294;49.410;8.698;2023-03-05T00:06:37;29.17;;;21.67;;
10493;SDS011;5294;49.410;8.698;2023-03-05T00:09:04;29.23;;;20.20;;
10493;SDS011;5294;49.410;8.698;2023-03-05T00:11:30;29.43;;;21.43;;
10493;SDS011;5294;49.410;8.698;2023-03-05T00:13:57;30.37;;;21.20;;
10493;SDS011;5294;49.410;8.698;2023-03-05T00:16:24;28.23;;;20.97;;
10493;SDS011;5294;49.410;8.698;2023-03-05T00:18:56;33.37;;;23.30;;
10493;SDS011;5294;49.410;8.698;2023-03-05T00:21:24;27.50;;;20.77;;
10493;SDS011;5294;49.410;8.698;2023-03-05T00:23:53;28.03;;;20.40;;
10493;SDS011;5294;49.410;8.698;2023-03-05T00:26:23;29.07;;;21.30;;
10493;SDS011;5294;49.410;8.698;2023-03-05T00:28:53;30.43;;;21.90;;
10493;SDS011;5294;49.410;8.698;2023-03-05T00:31:20;29.73;;;22.17;;
10493;SDS011;5294;49.410;8.698;2023-03-05T00:33:53;29.97;;;21.77;;
10493;SDS011;5294;49.410;8.698;2023-03-05T00:36:19;29.40;;;20.73;;
10493;SDS011;5294;49.410;8.698;2023-03-05T00:38:45;29.97;;;22.10;;
10493;SDS011;5294;49.410;8.698;2023-03-05T00:41:11;30.27;;;21.97;;
10493;SDS011;5294;49.410;8.698;2023-03-05T00:43:37;31.93;;;23.50;;
10493;SDS011;5294;49.410;8.698;2023-03-05T00:46:06;31.30;;;21.80;;
10493;SDS011;5294;49.410;8.698;2023-03-05T00:48:34;29.17;;;21.97;;
10493;SDS011;5294;49.410;8.698;2023-03-05T00:51:00;32.00;;;22.87;;
10493;SDS011;5294;49.410;8.698;2023-03-05T00:53:27;29.50;;;21.77;;
10493;SDS011;5294;49.410;8.698;2023-03-05T00:55:53;32.53;;;22.47;;
10493;SDS011;5294;49.410;8.698;2023-03-05T00:58:19;29.83;;;23.43;;
10493;SDS011;5294;49.410;8.698;2023-03-05T01:00:45;32.57;;;23.97;;
10493;SDS011;5294;49.410;8.698;2023-03-05T01:03:14;33.10;;;23.77;;
10493;SDS011;5294;49.410;8.698;2023-03-05T01:05:40;33.43;;;24.47;;
10493;SDS011;5294;49.410;8.698;2023-03-05T01:08:06;30.60;;;23.03;;
10493;SDS011;5294;49.410;8.698;2023-03-05T01:10:34;32.33;;;22.23;;
10493;SDS011;5294;49.410;8.698;2023-03-05T01:13:00;31.70;;;22.97;;
10493;SDS011;5294;49.410;8.698;2023-03-05T01:15:28;30.90;;;21.43;;
10493;SDS011;5294;49.410;8.698;2023-03-05T01:17:54;31.57;;;23.87;;
10493;SDS011;5294;49.410;8.698;2023-03-05T01:20:21;29.67;;;22.87;;
10493;SDS011;5294;49.410;8.698;2023-03-05T01:22:47;28.90;;;22.33;;
10493;SDS011;5294;49.410;8.698;2023-03-05T01:25:13;32.17;;;22.77;;
10493;SDS011;5294;49.410;8.698;2023-03-05T01:27:39;31.10;;;22.07;;
10493;SDS011;5294;49.410;8.698;2023-03-05T01:30:06;31.43;;;21.53;;
10493;SDS011;5294;49.410;8.698;2023-03-05T01:32:32;28.80;;;21.53;;
10493;SDS011;5294;49.410;8.698;2023-03-05T01:35:01;29.13;;;21.10;;
10493;SDS011;5294;49.410;8.698;2023-03-05T01:37:29;28.43;;;20.17;;
10493;SDS011;5294;49.410;8.698;2023-03-05T01:39:55;29.00;;;22.00;;
10493;SDS011;5294;49.410;8.698;2023-03-05T01:42:24;27.93;;;21.70;;
10493;SDS011;5294;49.410;8.698;2023-03-05T01:45:07;27.47;;;21.33;;
10493;SDS011;5294;49.410;8.698;2023-03-05T01:47:34;27.90;;;21.10;;
10493;SDS011;5294;49.410;8.698;2023-03-05T01:50:00;28.63;;;21.90;;
10493;SDS011;5294;49.410;8.698;2023-03-05T01:52:26;33.50;;;22.17;;
10493;SDS011;5294;49.410;8.698;2023-03-05T01:54:53;29.77;;;21.83;;
10493;SDS011;5294;49.410;8.698;2023-03-05T01:57:25;29.37;;;22.27;;
10493;SDS011;5294;49.410;8.698;2023-03-05T01:59:57;30.83;;;22.70;;
10493;SDS011;5294;49.410;8.698;2023-03-05T02:02:24;32.50;;;22.73;;
10493;SDS011;5294;49.410;8.698;2023-03-05T02:04:51;32.50;;;22.10;;
10493;SDS011;5294;49.410;8.698;2023-03-05T02:07:19;31.57;;;23.33;;
10493;SDS011;5294;49.410;8.698;2023-03-05T02:09:45;30.33;;;22.53;;
10493;SDS011;5294;49.410;8.698;2023-03-05T02:12:12;34.23;;;23.63;;
10493;SDS011;5294;49.410;8.698;2023-03-05T02:14:38;31.90;;;22.93;;
10493;SDS011;5294;49.410;8.698;2023-03-05T02:17:05;31.77;;;22.53;;
10493;SDS011;5294;49.410;8.698;2023-03-05T02:19:51;27.27;;;21.43;;
10493;SDS011;5294;49.410;8.698;2023-03-05T02:22:20;31.00;;;23.57;;
10493;SDS011;5294;49.410;8.698;2023-03-05T02:24:46;33.07;;;23.77;;
10493;SDS011;5294;49.410;8.698;2023-03-05T02:27:13;34.47;;;24.77;;
10493;SDS011;5294;49.410;8.698;2023-03-05T02:29:44;30.43;;;21.43;;
10493;SDS011;5294;49.410;8.698;2023-03-05T02:32:10;30.57;;;21.77;;
10493;SDS011;5294;49.410;8.698;2023-03-05T02:34:37;32.73;;;22.40;;
10493;SDS011;5294;49.410;8.698;2023-03-05T02:37:05;32.77;;;23.30;;
10493;SDS011;5294;49.410;8.698;2023-03-05T02:39:33;32.07;;;23.07;;
10493;SDS011;5294;49.410;8.698;2023-03-05T02:41:59;34.27;;;23.40;;
10493;SDS011;5294;49.410;8.698;2023-03-05T02:44:25;30.73;;;22.20;;
10493;SDS011;5294;49.410;8.698;2023-03-05T02:46:51;29.77;;;21.60;;
10493;SDS011;5294;49.410;8.698;2023-03-05T02:49:17;29.83;;;21.63;;
10493;SDS011;5294;49.410;8.698;2023-03-05T02:51:43;28.83;;;21.00;;
10493;SDS011;5294;49.410;8.698;2023-03-05T02:54:09;29.77;;;20.40;;
10493;SDS011;5294;49.410;8.698;2023-03-05T02:56:35;30.10;;;21.93;;
10493;SDS011;5294;49.410;8.698;2023-03-05T02:59:03;31.83;;;22.90;;
10493;SDS011;5294;49.410;8.698;2023-03-05T03:01:29;32.40;;;22.73;;
10493;SDS011;5294;49.410;8.698;2023-03-05T03:03:57;26.67;;;20.70;;
10493;SDS011;5294;49.410;8.698;2023-03-05T03:06:23;27.60;;;21.97;;
10493;SDS011;5294;49.410;8.698;2023-03-05T03:08:49;31.03;;;22.20;;
10493;SDS011;5294;49.410;8.698;2023-03-05T03:11:15;31.50;;;21.37;;
10493;SDS011;5294;49.410;8.698;2023-03-05T03:13:42;31.40;;;22.07;;
10493;SDS011;5294;49.410;8.698;2023-03-05T03:16:09;30.23;;;21.20;;
10493;SDS011;5294;49.410;8.698;2023-03-05T03:18:36;30.57;;;22.50;;
10493;SDS011;5294;49.410;8.698;2023-03-05T03:21:02;30.50;;;21.67;;
10493;SDS011;5294;49.410;8.698;2023-03-05T03:23:28;32.43;;;21.60;;
10493;SDS011;5294;49.410;8.698;2023-03-05T03:25:54;31.47;;;23.00;;
10493;SDS011;5294;49.410;8.698;2023-03-05T03:28:22;28.83;;;21.43;;
10493;SDS011;5294;49.410;8.698;2023-03-05T03:30:48;31.97;;;21.97;;
10493;SDS011;5294;49.410;8.698;2023-03-05T03:33:17;30.03;;;21.97;;
10493;SDS011;5294;49.410;8.698;2023-03-05T03:35:44;28.30;;;21.77;;
10493;SDS011;5294;49.410;8.698;2023-03-05T03:38:10;27.63;;;20.90;;
10493;SDS011;5294;49.410;8.698;2023-03-05T03:40:40;27.03;;;20.20;;
10493;SDS011;5294;49.410;8.698;2023-03-05T03:43:06;25.77;;;20.30;;
10493;SDS011;5294;49.410;8.698;2023-03-05T03:45:32;31.97;;;20.83;;
10493;SDS011;5294;49.410;8.698;2023-03-05T03:47:58;30.20;;;21.57;;
10493;SDS011;5294;49.410;8.698;2023-03-05T03:50:26;27.33;;;21.33;;
10493;SDS011;5294;49.410;8.698;2023-03-05T03:52:52;27.60;;;21.30;;
10493;SDS011;5294;49.410;8.698;2023-03-05T03:55:18;32.23;;;23.40;;
10493;SDS011;5294;49.410;8.698;2023-03-05T03:57:44;34.40;;;24.07;;
10493;SDS011;5294;49.410;8.698;2023-03-05T04:00:11;33.40;;;23.07;;
10493;SDS011;5294;49.410;8.698;2023-03-05T04:02:37;28.27;;;22.37;;
10493;SDS011;5294;49.410;8.698;2023-03-05T04:05:03;28.73;;;22.60;;
10493;SDS011;5294;49.410;8.698;2023-03-05T04:07:31;32.10;;;22.27;;
10493;SDS011;5294;49.410;8.698;2023-03-05T04:09:57;27.93;;;21.13;;
10493;SDS011;5294;49.410;8.698;2023-03-05T04:12:23;32.63;;;22.83;;
10493;SDS011;5294;49.410;8.698;2023-03-05T04:14:49;31.77;;;22.37;;
10493;SDS011;5294;49.410;8.698;2023-03-05T04:17:15;31.97;;;22.27;;
10493;SDS011;5294;49.410;8.698;2023-03-05T04:19:41;29.50;;;21.63;;
10493;SDS011;5294;49.410;8.698;2023-03-05T04:22:09;29.53;;;21.17;;
10493;SDS011;5294;49.410;8.698;2023-03-05T04:24:35;29.13;;;20.93;;
10493;SDS011;5294;49.410;8.698;2023-03-05T04:27:01;26.73;;;20.43;;
10493;SDS011;5294;49.410;8.698;2023-03-05T04:29:29;27.67;;;19.47;;
10493;SDS011;5294;49.410;8.698;2023-03-05T04:31:55;30.13;;;22.17;;
10493;SDS011;5294;49.410;8.698;2023-03-05T04:34:21;26.10;;;21.20;;
10493;SDS011;5294;49.410;8.698;2023-03-05T04:36:47;27.93;;;20.80;;
10493;SDS011;5294;49.410;8.698;2023-03-05T04:39:13;28.63;;;21.10;;
10493;SDS011;5294;49.410;8.698;2023-03-05T04:41:40;27.83;;;21.03;;
10493;SDS011;5294;49.410;8.698;2023-03-05T04:44:08;25.17;;;20.27;;
10493;SDS011;5294;49.410;8.698;2023-03-05T04:46:34;25.90;;;19.90;;
10493;SDS011;5294;49.410;8.698;2023-03-05T04:49:00;27.00;;;20.43;;
10493;SDS011;5294;49.410;8.698;2023-03-05T04:51:28;28.13;;;20.97;;
10493;SDS011;5294;49.410;8.698;2023-03-05T04:53:54;28.77;;;21.20;;
10493;SDS011;5294;49.410;8.698;2023-03-05T04:56:22;26.93;;;20.57;;
10493;SDS011;5294;49.410;8.698;2023-03-05T04:58:48;29.43;;;21.90;;
10493;SDS011;5294;49.410;8.698;2023-03-05T05:01:14;32.83;;;23.47;;
10493;SDS011;5294;49.410;8.698;2023-03-05T05:03:40;29.17;;;22.40;;
10493;SDS011;5294;49.410;8.698;2023-03-05T05:06:06;29.83;;;21.87;;
10493;SDS011;5294;49.410;8.698;2023-03-05T05:08:34;33.23;;;23.30;;
10493;SDS011;5294;49.410;8.698;2023-03-05T05:11:05;28.33;;;21.53;;
10493;SDS011;5294;49.410;8.698;2023-03-05T05:13:31;27.37;;;22.03;;
10493;SDS011;5294;49.410;8.698;2023-03-05T05:15:57;28.10;;;21.93;;
10493;SDS011;5294;49.410;8.698;2023-03-05T05:18:26;28.93;;;21.93;;
10493;SDS011;5294;49.410;8.698;2023-03-05T05:20:54;32.37;;;21.47;;
10493;SDS011;5294;49.410;8.698;2023-03-05T05:23:20;31.57;;;23.63;;
10493;SDS011;5294;49.410;8.698;2023-03-05T05:25:54;31.27;;;22.50;;
10493;SDS011;5294;49.410;8.698;2023-03-05T05:28:20;32.70;;;22.90;;
10493;SDS011;5294;49.410;8.698;2023-03-05T05:30:46;33.57;;;22.47;;
10493;SDS011;5294;49.410;8.698;2023-03-05T05:33:14;30.23;;;23.00;;
10493;SDS011;5294;49.410;8.698;2023-03-05T05:35:40;28.97;;;21.10;;
10493;SDS011;5294;49.410;8.698;2023-03-05T05:38:09;31.67;;;21.80;;
10493;SDS011;5294;49.410;8.698;2023-03-05T05:40:35;31.97;;;22.30;;
10493;SDS011;5294;49.410;8.698;2023-03-05T05:43:01;33.17;;;22.47;;
10493;SDS011;5294;49.410;8.698;2023-03-05T05:45:27;31.00;;;21.37;;
10493;SDS011;5294;49.410;8.698;2023-03-05T05:47:53;31.33;;;23.33;;
10493;SDS011;5294;49.410;8.698;2023-03-05T05:50:19;33.33;;;23.70;;
10493;SDS011;5294;49.410;8.698;2023-03-05T05:52:49;31.67;;;22.53;;
10493;SDS011;5294;49.410;8.698;2023-03-05T05:55:16;33.00;;;23.63;;
10493;SDS011;5294;49.410;8.698;2023-03-05T05:57:46;30.97;;;23.17;;
10493;SDS011;5294;49.410;8.698;2023-03-05T06:00:12;28.97;;;23.63;;
10493;SDS011;5294;49.410;8.698;2023-03-05T06:02:39;31.07;;;23.27;;
10493;SDS011;5294;49.410;8.698;2023-03-05T06:05:05;29.00;;;23.40;;
10493;SDS011;5294;49.410;8.698;2023-03-05T06:07:33;27.23;;;22.00;;
10493;SDS011;5294;49.410;8.698;2023-03-05T06:10:02;29.87;;;23.03;;
10493;SDS011;5294;49.410;8.698;2023-03-05T06:12:28;30.37;;;23.37;;
10493;SDS011;5294;49.410;8.698;2023-03-05T06:14:56;30.57;;;22.57;;
10493;SDS011;5294;49.410;8.698;2023-03-05T06:17:22;30.00;;;22.67;;
10493;SDS011;5294;49.410;8.698;2023-03-05T06:19:49;29.60;;;21.93;;
10493;SDS011;5294;49.410;8.698;2023-03-05T06:22:17;32.60;;;22.50;;
10493;SDS011;5294;49.410;8.698;2023-03-05T06:24:43;31.93;;;23.47;;
10493;SDS011;5294;49.410;8.698;2023-03-05T06:27:09;29.23;;;22.77;;
10493;SDS011;5294;49.410;8.698;2023-03-05T06:29:37;29.77;;;23.70;;
10493;SDS011;5294;49.410;8.698;2023-03-05T06:32:03;27.57;;;20.50;;
10493;SDS011;5294;49.410;8.698;2023-03-05T06:34:29;30.97;;;23.27;;
10493;SDS011;5294;49.410;8.698;2023-03-05T06:36:55;30.57;;;23.33;;
10493;SDS011;5294;49.410;8.698;2023-03-05T06:39:21;27.30;;;22.30;;
10493;SDS011;5294;49.410;8.698;2023-03-05T06:41:49;32.97;;;24.10;;
10493;SDS011;5294;49.410;8.698;2023-03-05T06:44:15;30.03;;;23.23;;
10493;SDS011;5294;49.410;8.698;2023-03-05T06:46:41;30.67;;;22.80;;
10493;SDS011;5294;49.410;8.698;2023-03-05T06:49:08;28.83;;;22.23;;
10493;SDS011;5294;49.410;8.698;2023-03-05T06:51:38;31.10;;;22.10;;
10493;SDS011;5294;49.410;8.698;2023-03-05T06:54:08;31.07;;;23.70;;
10493;SDS011;5294;49.410;8.698;2023-03-05T06:56:34;28.63;;;22.00;;
10493;SDS011;5294;49.410;8.698;2023-03-05T06:59:01;31.30;;;23.73;;
10493;SDS011;5294;49.410;8.698;2023-03-05T07:01:27;33.13;;;25.03;;
10493;SDS011;5294;49.410;8.698;2023-03-05T07:03:53;33.03;;;25.43;;
10493;SDS011;5294;49.410;8.698;2023-03-05T07:06:22;32.07;;;23.57;;
10493;SDS011;5294;49.410;8.698;2023-03-05T07:08:49;36.07;;;24.70;;
10493;SDS011;5294;49.410;8.698;2023-03-05T07:11:18;31.47;;;24.07;;
10493;SDS011;5294;49.410;8.698;2023-03-05T07:13:44;35.40;;;26.67;;
10493;SDS011;5294;49.410;8.698;2023-03-05T07:16:15;34.90;;;26.13;;
10493;SDS011;5294;49.410;8.698;2023-03-05T07:18:41;34.77;;;24.43;;
10493;SDS011;5294;49.410;8.698;2023-03-05T07:21:10;34.37;;;24.60;;
10493;SDS011;5294;49.410;8.698;2023-03-05T07:23:38;35.50;;;24.53;;
10493;SDS011;5294;49.410;8.698;2023-03-05T07:26:04;32.60;;;24.47;;
10493;SDS011;5294;49.410;8.698;2023-03-05T07:28:31;36.77;;;25.33;;
10493;SDS011;5294;49.410;8.698;2023-03-05T07:30:59;36.63;;;26.33;;
10493;SDS011;5294;49.410;8.698;2023-03-05T07:33:25;42.60;;;29.00;;
10493;SDS011;5294;49.410;8.698;2023-03-05T07:35:52;40.63;;;28.03;;
10493;SDS011;5294;49.410;8.698;2023-03-05T07:38:17;39.87;;;28.13;;
10493;SDS011;5294;49.410;8.698;2023-03-05T07:40:46;35.80;;;27.50;;
10493;SDS011;5294;49.410;8.698;2023-03-05T07:43:12;34.97;;;24.90;;
10493;SDS011;5294;49.410;8.698;2023-03-05T07:45:38;36.13;;;26.30;;
10493;SDS011;5294;49.410;8.698;2023-03-05T07:48:05;34.97;;;26.13;;
10493;SDS011;5294;49.410;8.698;2023-03-05T07:50:33;35.57;;;27.93;;
10493;SDS011;5294;49.410;8.698;2023-03-05T07:52:59;36.23;;;27.80;;
10493;SDS011;5294;49.410;8.698;2023-03-05T07:55:25;41.67;;;28.83;;
10493;SDS011;5294;49.410;8.698;2023-03-05T07:57:51;36.07;;;26.77;;
10493;SDS011;5294;49.410;8.698;2023-03-05T08:00:17;35.50;;;26.13;;
10493;SDS011;5294;49.410;8.698;2023-03-05T08:02:46;37.77;;;28.33;;
10493;SDS011;5294;49.410;8.698;2023-03-05T08:05:12;40.10;;;28.10;;
10493;SDS011;5294;49.410;8.698;2023-03-05T08:07:38;37.00;;;25.73;;
10493;SDS011;5294;49.410;8.698;2023-03-05T08:10:07;36.13;;;26.67;;
10493;SDS011;5294;49.410;8.698;2023-03-05T08:12:33;38.00;;;27.20;;
10493;SDS011;5294;49.410;8.698;2023-03-05T08:14:59;40.40;;;29.17;;
10493;SDS011;5294;49.410;8.698;2023-03-05T08:17:25;32.97;;;26.27;;
10493;SDS011;5294;49.410;8.698;2023-03-05T08:19:51;34.73;;;26.20;;
10493;SDS011;5294;49.410;8.698;2023-03-05T08:22:21;36.53;;;27.33;;
10493;SDS011;5294;49.410;8.698;2023-03-05T08:24:47;38.03;;;28.27;;
10493;SDS011;5294;49.410;8.698;2023-03-05T08:27:14;37.17;;;26.90;;
10493;SDS011;5294;49.410;8.698;2023-03-05T08:29:42;37.67;;;27.43;;
10493;SDS011;5294;49.410;8.698;2023-03-05T08:32:08;39.00;;;29.13;;
10493;SDS011;5294;49.410;8.698;2023-03-05T08:34:34;35.20;;;25.67;;
10493;SDS011;5294;49.410;8.698;2023-03-05T08:37:02;36.67;;;25.63;;
10493;SDS011;5294;49.410;8.698;2023-03-05T08:39:30;33.83;;;23.20;;
10493;SDS011;5294;49.410;8.698;2023-03-05T08:41:56;32.07;;;25.20;;
10493;SDS011;5294;49.410;8.698;2023-03-05T08:44:22;28.80;;;23.30;;
10493;SDS011;5294;49.410;8.698;2023-03-05T08:46:48;31.43;;;26.13;;
10493;SDS011;5294;49.410;8.698;2023-03-05T08:49:14;31.07;;;25.13;;
10493;SDS011;5294;49.410;8.698;2023-03-05T08:51:40;27.47;;;22.40;;
10493;SDS011;5294;49.410;8.698;2023-03-05T08:54:08;27.73;;;22.87;;
10493;SDS011;5294;49.410;8.698;2023-03-05T08:56:34;27.00;;;21.90;;
10493;SDS011;5294;49.410;8.698;2023-03-05T08:59:01;27.33;;;22.73;;
10493;SDS011;5294;49.410;8.698;2023-03-05T09:01:27;27.47;;;23.23;;
10493;SDS011;5294;49.410;8.698;2023-03-05T09:03:54;26.00;;;22.03;;
10493;SDS011;5294;49.410;8.698;2023-03-05T09:06:20;30.73;;;23.53;;
10493;SDS011;5294;49.410;8.698;2023-03-05T09:08:49;30.67;;;22.93;;
10493;SDS011;5294;49.410;8.698;2023-03-05T09:11:15;27.60;;;22.03;;
10493;SDS011;5294;49.410;8.698;2023-03-05T09:13:41;26.50;;;21.80;;
10493;SDS011;5294;49.410;8.698;2023-03-05T09:16:08;26.80;;;21.67;;
10493;SDS011;5294;49.410;8.698;2023-03-05T09:18:35;28.57;;;22.80;;
10493;SDS011;5294;49.410;8.698;2023-03-05T09:21:05;25.77;;;22.97;;
10493;SDS011;5294;49.410;8.698;2023-03-05T09:23:33;25.63;;;21.90;;
10493;SDS011;5294;49.410;8.698;2023-03-05T09:26:00;26.77;;;23.00;;
10493;SDS011;5294;49.410;8.698;2023-03-05T09:28:26;23.83;;;20.50;;
10493;SDS011;5294;49.410;8.698;2023-03-05T09:30:52;26.50;;;19.53;;
10493;SDS011;5294;49.410;8.698;2023-03-05T09:33:19;24.30;;;20.07;;
10493;SDS011;5294;49.410;8.698;2023-03-05T09:35:47;25.63;;;19.93;;
10493;SDS011;5294;49.410;8.698;2023-03-05T09:38:13;21.33;;;17.97;;
10493;SDS011;5294;49.410;8.698;2023-03-05T09:48:52;20.17;;;17.43;;
10493;SDS011;5294;49.410;8.698;2023-03-05T09:51:25;22.07;;;15.70;;
10493;SDS011;5294;49.410;8.698;2023-03-05T09:53:56;20.87;;;17.50;;
10493;SDS011;5294;49.410;8.698;2023-03-05T09:56:33;20.93;;;16.77;;
10493;SDS011;5294;49.410;8.698;2023-03-05T10:01:45;17.30;;;15.53;;
10493;SDS011;5294;49.410;8.698;2023-03-05T10:04:23;16.50;;;14.37;;
10493;SDS011;5294;49.410;8.698;2023-03-05T10:07:03;18.17;;;13.47;;
10493;SDS011;5294;49.410;8.698;2023-03-05T10:14:47;15.87;;;13.77;;
10493;SDS011;5294;49.410;8.698;2023-03-05T10:17:32;13.77;;;12.27;;
10493;SDS011;5294;49.410;8.698;2023-03-05T10:20:02;14.50;;;12.23;;
10493;SDS011;5294;49.410;8.698;2023-03-05T10:22:32;15.73;;;12.50;;
10493;SDS011;5294;49.410;8.698;2023-03-05T10:25:15;15.60;;;12.80;;
10493;SDS011;5294;49.410;8.698;2023-03-05T10:35:41;14.70;;;12.50;;
10493;SDS011;5294;49.410;8.698;2023-03-05T10:40:45;14.73;;;12.93;;
10493;SDS011;5294;49.410;8.698;2023-03-05T10:45:39;16.63;;;12.63;;
10493;SDS011;5294;49.410;8.698;2023-03-05T10:48:10;15.13;;;12.43;;
10493;SDS011;5294;49.410;8.698;2023-03-05T10:50:39;14.47;;;12.77;;
10493;SDS011;5294;49.410;8.698;2023-03-05T10:55:45;12.90;;;11.17;;
10493;SDS011;5294;49.410;8.698;2023-03-05T10:58:12;14.87;;;11.67;;
10493;SDS011;5294;49.410;8.698;2023-03-05T11:00:39;16.40;;;12.70;;
10493;SDS011;5294;49.410;8.698;2023-03-05T11:03:06;13.37;;;11.87;;
10493;SDS011;5294;49.410;8.698;2023-03-05T11:11:09;15.57;;;12.27;;
10493;SDS011;5294;49.410;8.698;2023-03-05T11:13:37;13.03;;;11.63;;
10493;SDS011;5294;49.410;8.698;2023-03-05T11:16:06;13.80;;;11.37;;
10493;SDS011;5294;49.410;8.698;2023-03-05T11:18:34;11.83;;;10.63;;
10493;SDS011;5294;49.410;8.698;2023-03-05T11:21:11;13.57;;;11.97;;
10493;SDS011;5294;49.410;8.698;2023-03-05T11:23:43;12.60;;;11.27;;
10493;SDS011;5294;49.410;8.698;2023-03-05T11:28:39;15.27;;;10.83;;
10493;SDS011;5294;49.410;8.698;2023-03-05T11:36:21;13.77;;;10.73;;
10493;SDS011;5294;49.410;8.698;2023-03-05T11:38:52;11.07;;;9.80;;
10493;SDS011;5294;49.410;8.698;2023-03-05T11:41:23;10.80;;;9.70;;
10493;SDS011;5294;49.410;8.698;2023-03-05T11:43:51;14.30;;;10.93;;
10493;SDS011;5294;49.410;8.698;2023-03-05T11:46:18;11.47;;;9.50;;
10493;SDS011;5294;49.410;8.698;2023-03-05T11:48:44;11.63;;;10.43;;
10493;SDS011;5294;49.410;8.698;2023-03-05T11:51:19;12.73;;;10.47;;
10493;SDS011;5294;49.410;8.698;2023-03-05T11:53:46;12.07;;;10.37;;
10493;SDS011;5294;49.410;8.698;2023-03-05T11:58:51;12.33;;;10.57;;
10493;SDS011;5294;49.410;8.698;2023-03-05T12:01:22;13.87;;;10.00;;
10493;SDS011;5294;49.410;8.698;2023-03-05T12:03:49;12.63;;;9.97;;
10493;SDS011;5294;49.410;8.698;2023-03-05T12:06:27;11.70;;;9.67;;
10493;SDS011;5294;49.410;8.698;2023-03-05T12:08:57;11.10;;;9.83;;
10493;SDS011;5294;49.410;8.698;2023-03-05T12:11:25;11.13;;;9.70;;
10493;SDS011;5294;49.410;8.698;2023-03-05T12:16:52;11.33;;;9.80;;
10493;SDS011;5294;49.410;8.698;2023-03-05T12:21:52;10.63;;;9.23;;
10493;SDS011;5294;49.410;8.698;2023-03-05T12:31:54;12.73;;;9.67;;
10493;SDS011;5294;49.410;8.698;2023-03-05T12:37:02;14.17;;;8.97;;
10493;SDS011;5294;49.410;8.698;2023-03-05T12:47:43;11.13;;;8.80;;
10493;SDS011;5294;49.410;8.698;2023-03-05T12:58:10;10.17;;;8.70;;
10493;SDS011;5294;49.410;8.698;2023-03-05T13:01:01;11.53;;;8.73;;
10493;SDS011;5294;49.410;8.698;2023-03-05T13:03:27;12.40;;;9.27;;
10493;SDS011;5294;49.410;8.698;2023-03-05T13:05:56;11.87;;;9.37;;
10493;SDS011;5294;49.410;8.698;2023-03-05T13:08:28;10.40;;;9.30;;
10493;SDS011;5294;49.410;8.698;2023-03-05T13:13:21;9.57;;;8.57;;
10493;SDS011;5294;49.410;8.698;2023-03-05T13:15:51;9.47;;;8.40;;
10493;SDS011;5294;49.410;8.698;2023-03-05T13:18:18;11.93;;;8.70;;
10493;SDS011;5294;49.410;8.698;2023-03-05T13:20:45;12.47;;;9.17;;
10493;SDS011;5294;49.410;8.698;2023-03-05T13:23:19;10.87;;;8.93;;
10493;SDS011;5294;49.410;8.698;2023-03-05T13:28:43;9.00;;;8.10;;
10493;SDS011;5294;49.410;8.698;2023-03-05T13:31:18;9.93;;;7.80;;
10493;SDS011;5294;49.410;8.698;2023-03-05T13:33:51;9.10;;;7.53;;
10493;SDS011;5294;49.410;8.698;2023-03-05T13:36:18;8.80;;;7.27;;
10493;SDS011;5294;49.410;8.698;2023-03-05T13:38:44;9.53;;;7.47;;
10493;SDS011;5294;49.410;8.698;2023-03-05T13:43:41;10.03;;;8.17;;
10493;SDS011;5294;49.410;8.698;2023-03-05T13:46:07;10.33;;;8.43;;
10493;SDS011;5294;49.410;8.698;2023-03-05T13:48:33;10.40;;;9.30;;
10493;SDS011;5294;49.410;8.698;2023-03-05T13:50:59;12.93;;;10.13;;
10493;SDS011;5294;49.410;8.698;2023-03-05T13:53:30;12.00;;;9.43;;
10493;SDS011;5294;49.410;8.698;2023-03-05T14:03:54;10.43;;;8.40;;
10493;SDS011;5294;49.410;8.698;2023-03-05T14:06:21;10.17;;;8.93;;
10493;SDS011;5294;49.410;8.698;2023-03-05T14:08:49;10.87;;;9.13;;
10493;SDS011;5294;49.410;8.698;2023-03-05T14:11:18;9.93;;;8.63;;
10493;SDS011;5294;49.410;8.698;2023-03-05T14:13:45;10.90;;;8.90;;
10493;SDS011;5294;49.410;8.698;2023-03-05T14:16:12;9.00;;;8.00;;
10493;SDS011;5294;49.410;8.698;2023-03-05T14:18:40;10.90;;;9.43;;
10493;SDS011;5294;49.410;8.698;2023-03-05T14:21:18;8.50;;;7.53;;
10493;SDS011;5294;49.410;8.698;2023-03-05T14:23:45;8.33;;;7.23;;
10493;SDS011;5294;49.410;8.698;2023-03-05T14:28:49;7.90;;;6.70;;
10493;SDS011;5294;49.410;8.698;2023-03-05T14:31:15;7.03;;;6.33;;
10493;SDS011;5294;49.410;8.698;2023-03-05T14:33:42;8.47;;;6.53;;
10493;SDS011;5294;49.410;8.698;2023-03-05T14:36:11;6.87;;;6.17;;
10493;SDS011;5294;49.410;8.698;2023-03-05T14:38:38;9.83;;;7.20;;
10493;SDS011;5294;49.410;8.698;2023-03-05T14:41:21;7.30;;;6.57;;
10493;SDS011;5294;49.410;8.698;2023-03-05T14:43:58;8.63;;;6.87;;
10493;SDS011;5294;49.410;8.698;2023-03-05T14:46:24;6.73;;;6.00;;
10493;SDS011;5294;49.410;8.698;2023-03-05T14:48:50;8.10;;;6.47;;
10493;SDS011;5294;49.410;8.698;2023-03-05T14:51:17;7.27;;;6.57;;
10493;SDS011;5294;49.410;8.698;2023-03-05T14:53:44;6.93;;;5.73;;
10493;SDS011;5294;49.410;8.698;2023-03-05T14:58:45;7.63;;;6.80;;
10493;SDS011;5294;49.410;8.698;2023-03-05T15:01:11;7.37;;;6.57;;
10493;SDS011;5294;49.410;8.698;2023-03-05T15:03:37;7.80;;;6.73;;
10493;SDS011;5294;49.410;8.698;2023-03-05T15:06:05;7.93;;;7.13;;
10493;SDS011;5294;49.410;8.698;2023-03-05T15:08:31;7.97;;;7.17;;
10493;SDS011;5294;49.410;8.698;2023-03-05T15:10:58;9.27;;;7.83;;
10493;SDS011;5294;49.410;8.698;2023-03-05T15:13:24;7.97;;;7.17;;
10493;SDS011;5294;49.410;8.698;2023-03-05T15:15:51;8.33;;;7.27;;
10493;SDS011;5294;49.410;8.698;2023-03-05T15:18:17;7.70;;;6.90;;
10493;SDS011;5294;49.410;8.698;2023-03-05T15:20:44;8.60;;;7.10;;
10493;SDS011;5294;49.410;8.698;2023-03-05T15:23:13;7.63;;;6.83;;
10493;SDS011;5294;49.410;8.698;2023-03-05T15:25:39;9.80;;;7.30;;
10493;SDS011;5294;49.410;8.698;2023-03-05T15:28:06;8.47;;;7.67;;
10493;SDS011;5294;49.410;8.698;2023-03-05T15:30:33;7.63;;;6.83;;
10493;SDS011;5294;49.410;8.698;2023-03-05T15:33:03;7.97;;;7.20;;
10493;SDS011;5294;49.410;8.698;2023-03-05T15:35:29;9.47;;;7.87;;
10493;SDS011;5294;49.410;8.698;2023-03-05T15:37:55;8.37;;;7.20;;
10493;SDS011;5294;49.410;8.698;2023-03-05T15:40:22;7.93;;;7.13;;
10493;SDS011;5294;49.410;8.698;2023-03-05T15:42:48;8.77;;;7.43;;
10493;SDS011;5294;49.410;8.698;2023-03-05T15:45:14;8.83;;;7.07;;
10493;SDS011;5294;49.410;8.698;2023-03-05T15:47:42;8.60;;;7.37;;
10493;SDS011;5294;49.410;8.698;2023-03-05T15:50:08;8.87;;;7.70;;
10493;SDS011;5294;49.410;8.698;2023-03-05T15:52:34;8.20;;;7.03;;
10493;SDS011;5294;49.410;8.698;2023-03-05T15:55:01;7.93;;;7.13;;
10493;SDS011;5294;49.410;8.698;2023-03-05T15:57:29;8.27;;;7.47;;
10493;SDS011;5294;49.410;8.698;2023-03-05T15:59:57;8.17;;;7.17;;
10493;SDS011;5294;49.410;8.698;2023-03-05T16:02:23;7.87;;;7.07;;
10493;SDS011;5294;49.410;8.698;2023-03-05T16:04:51;7.70;;;6.90;;
10493;SDS011;5294;49.410;8.698;2023-03-05T16:07:17;6.60;;;5.93;;
10493;SDS011;5294;49.410;8.698;2023-03-05T16:09:45;7.70;;;6.40;;
10493;SDS011;5294;49.410;8.698;2023-03-05T16:12:14;7.50;;;6.47;;
10493;SDS011;5294;49.410;8.698;2023-03-05T16:14:45;7.53;;;6.83;;
10493;SDS011;5294;49.410;8.698;2023-03-05T16:17:11;7.17;;;6.43;;
10493;SDS011;5294;49.410;8.698;2023-03-05T16:19:39;7.50;;;6.80;;
10493;SDS011;5294;49.410;8.698;2023-03-05T16:22:09;7.37;;;6.67;;
10493;SDS011;5294;49.410;8.698;2023-03-05T16:24:35;7.53;;;6.63;;